createdAt,value
2022-10-24T00:03:04.146Z,14.50
2022-10-24T00:07:07.619Z,14.40
2022-10-24T00:11:15.585Z,14.40
2022-10-24T00:15:17.392Z,14.50
2022-10-24T00:19:19.263Z,14.50
2022-10-24T00:23:20.939Z,14.40
2022-10-24T00:27:22.632Z,14.30
2022-10-24T00:31:24.954Z,14.40
2022-10-24T00:35:26.979Z,14.60
2022-10-24T00:39:28.698Z,14.70
2022-10-24T00:43:30.744Z,14.60
2022-10-24T00:47:32.631Z,14.60
2022-10-24T00:51:34.340Z,14.70
2022-10-24T00:55:36.290Z,14.70
2022-10-24T00:59:41.291Z,14.70
2022-10-24T01:03:43.047Z,14.60
2022-10-24T01:07:59.975Z,14.60
2022-10-24T01:12:19.850Z,14.60
2022-10-24T01:16:38.034Z,14.50
2022-10-24T01:20:43.005Z,14.40
2022-10-24T01:25:10.562Z,14.40
2022-10-24T01:29:39.900Z,14.40
2022-10-24T01:33:50.791Z,14.50
2022-10-24T01:38:02.020Z,14.60
2022-10-24T01:42:06.282Z,14.70
2022-10-24T01:46:19.574Z,14.70
2022-10-24T01:50:24.803Z,14.80
2022-10-24T01:54:27.086Z,14.70
2022-10-24T01:58:28.780Z,14.70
2022-10-24T02:02:42.795Z,14.80
2022-10-24T02:06:46.955Z,14.90
2022-10-24T02:10:52.534Z,14.90
2022-10-24T02:15:08.675Z,15.00
2022-10-24T02:19:11.013Z,15.00
2022-10-24T02:23:18.791Z,14.90
2022-10-24T02:27:31.412Z,14.80
2022-10-24T02:31:41.001Z,15.00
2022-10-24T02:35:45.852Z,14.90
2022-10-24T02:39:49.051Z,14.90
2022-10-24T02:43:52.155Z,15.20
2022-10-24T02:47:59.934Z,15.20
2022-10-24T02:52:02.300Z,15.10
2022-10-24T02:56:04.243Z,14.90
2022-10-24T03:00:07.164Z,15.00
2022-10-24T03:04:08.824Z,15.00
2022-10-24T03:08:11.617Z,14.90
2022-10-24T03:12:16.195Z,15.00
2022-10-24T03:16:17.965Z,15.00
2022-10-24T03:20:19.695Z,15.00
2022-10-24T03:24:31.149Z,15.00
2022-10-24T03:28:43.079Z,15.10
2022-10-24T03:32:44.892Z,15.00
2022-10-24T03:36:46.819Z,15.10
2022-10-24T03:40:49.423Z,15.10
2022-10-24T03:44:51.135Z,15.10
2022-10-24T03:48:52.867Z,15.00
2022-10-24T03:52:54.640Z,15.10
2022-10-24T03:56:56.317Z,15.00
2022-10-24T04:00:59.250Z,15.00
2022-10-24T04:05:01.720Z,14.90
2022-10-24T04:09:04.535Z,15.10
2022-10-24T04:13:06.203Z,15.00
2022-10-24T04:17:07.916Z,15.00
2022-10-24T04:21:09.736Z,15.00
2022-10-24T04:25:11.400Z,14.90
2022-10-24T04:29:13.271Z,14.70
2022-10-24T04:33:14.914Z,14.70
2022-10-24T04:37:16.604Z,14.60
2022-10-24T04:41:18.292Z,14.80
2022-10-24T04:45:20.062Z,14.70
2022-10-24T04:49:21.845Z,14.70
2022-10-24T04:53:23.924Z,14.70
2022-10-24T04:57:25.571Z,14.80
2022-10-24T05:01:27.308Z,14.90
2022-10-24T05:05:29.027Z,14.70
2022-10-24T05:09:30.712Z,14.60
2022-10-24T05:13:35.830Z,14.60
2022-10-24T05:17:38.506Z,14.40
2022-10-24T05:21:40.166Z,14.30
2022-10-24T05:25:41.852Z,14.30
2022-10-24T05:29:43.539Z,14.50
2022-10-24T05:33:45.183Z,14.50
2022-10-24T05:37:46.863Z,14.50
2022-10-24T05:41:49.509Z,14.50
2022-10-24T05:45:52.082Z,14.40
2022-10-24T05:49:54.084Z,14.20
2022-10-24T05:53:55.815Z,14.40
2022-10-24T05:57:57.531Z,14.50
2022-10-24T06:01:59.328Z,14.50
2022-10-24T06:06:07.760Z,14.50
2022-10-24T06:10:10.584Z,14.40
2022-10-24T06:14:13.571Z,14.40
2022-10-24T06:18:15.235Z,14.50
2022-10-24T06:22:18.561Z,14.40
2022-10-24T06:26:23.150Z,14.50
2022-10-24T06:30:25.892Z,14.40
2022-10-24T06:34:27.946Z,14.40
2022-10-24T06:38:29.613Z,14.60
2022-10-24T06:42:31.366Z,14.50
2022-10-24T06:46:33.020Z,14.70
2022-10-24T06:50:34.751Z,14.60
2022-10-24T06:54:37.359Z,14.70
2022-10-24T06:58:39.069Z,14.90
2022-10-24T07:02:40.731Z,15.00
2022-10-24T07:06:42.408Z,15.20
2022-10-24T07:10:44.060Z,15.20
2022-10-24T07:14:45.696Z,15.30
2022-10-24T07:18:47.838Z,15.30
2022-10-24T07:22:49.566Z,15.50
2022-10-24T07:26:51.300Z,15.60
2022-10-24T07:30:52.966Z,15.60
2022-10-24T07:34:54.675Z,15.60
2022-10-24T07:38:58.016Z,15.70
2022-10-24T07:42:59.762Z,15.70
2022-10-24T07:47:01.423Z,15.70
2022-10-24T07:51:06.766Z,15.80
2022-10-24T07:55:08.817Z,15.80
2022-10-24T07:59:30.022Z,15.80
2022-10-24T08:03:32.397Z,15.90
2022-10-24T08:07:37.977Z,16.00
2022-10-24T08:11:39.922Z,16.10
2022-10-24T08:15:41.626Z,16.20
2022-10-24T08:19:44.410Z,16.20
2022-10-24T08:23:47.917Z,16.40
2022-10-24T08:27:49.609Z,16.40
2022-10-24T08:31:53.149Z,16.40
2022-10-24T08:35:58.700Z,16.40
2022-10-24T08:40:00.391Z,16.40
2022-10-24T08:44:06.016Z,16.40
2022-10-24T08:48:17.431Z,16.40
2022-10-24T08:52:40.723Z,16.40
2022-10-24T08:56:42.648Z,16.40
2022-10-24T09:00:47.174Z,16.40
2022-10-24T09:04:57.201Z,16.50
2022-10-24T09:09:13.753Z,16.50
2022-10-24T09:13:17.126Z,16.50
2022-10-24T09:17:33.456Z,16.60
2022-10-24T09:21:35.225Z,16.70
2022-10-24T09:25:41.059Z,16.90
2022-10-24T09:29:43.014Z,17.00
2022-10-24T09:33:46.425Z,16.90
2022-10-24T09:37:55.736Z,17.10
2022-10-24T09:41:59.483Z,17.00
2022-10-24T09:46:03.891Z,17.00
2022-10-24T09:50:06.085Z,17.10
2022-10-24T09:54:19.786Z,17.10
2022-10-24T09:58:29.786Z,17.30
2022-10-24T10:02:37.559Z,17.40
2022-10-24T10:06:47.537Z,17.70
2022-10-24T10:11:08.155Z,17.70
2022-10-24T10:15:45.888Z,17.50
2022-10-24T10:19:48.179Z,17.40
2022-10-24T10:23:52.458Z,17.30
2022-10-24T10:27:54.152Z,17.20
2022-10-24T10:32:17.093Z,17.20
2022-10-24T10:36:30.695Z,17.20
2022-10-24T10:40:44.934Z,17.10
2022-10-24T10:45:14.718Z,17.10
2022-10-24T10:49:32.478Z,17.10
2022-10-24T10:53:48.040Z,17.00
2022-10-24T10:58:06.970Z,16.90
2022-10-24T11:02:34.837Z,16.90
2022-10-24T11:06:52.896Z,17.00
2022-10-24T11:11:11.462Z,17.00
2022-10-24T11:15:31.667Z,17.00
2022-10-24T11:20:14.230Z,17.10
2022-10-24T11:24:20.483Z,17.10
2022-10-24T11:28:43.410Z,17.20
2022-10-24T11:33:01.734Z,17.20
2022-10-24T11:37:10.188Z,17.20
2022-10-24T11:41:39.028Z,17.10
2022-10-24T11:45:54.102Z,17.10
2022-10-24T11:50:03.586Z,17.00
2022-10-24T11:54:13.004Z,17.00
2022-10-24T11:58:19.534Z,17.10
2022-10-24T12:02:58.619Z,17.00
2022-10-24T12:07:29.440Z,17.00
2022-10-24T12:11:53.175Z,17.00
2022-10-24T12:16:16.556Z,17.00
2022-10-24T12:20:21.714Z,16.90
2022-10-24T12:24:32.844Z,16.80
2022-10-24T12:28:35.617Z,16.90
2022-10-24T12:32:48.177Z,16.80
2022-10-24T12:37:09.448Z,16.70
2022-10-24T12:41:33.236Z,16.90
2022-10-24T12:45:35.014Z,17.10
2022-10-24T12:49:36.746Z,17.20
2022-10-24T12:54:02.096Z,17.30
2022-10-24T12:58:21.342Z,17.40
2022-10-24T13:02:31.199Z,17.70
2022-10-24T13:06:45.433Z,17.60
2022-10-24T13:11:03.522Z,17.70
2022-10-24T13:15:16.548Z,17.70
2022-10-24T13:19:21.992Z,17.80
2022-10-24T13:23:28.308Z,18.00
2022-10-24T13:27:31.600Z,18.10
2022-10-24T13:31:33.183Z,18.20
2022-10-24T13:35:35.384Z,18.20
2022-10-24T13:39:46.561Z,18.30
2022-10-24T13:43:51.673Z,18.40
2022-10-24T13:48:13.250Z,18.60
2022-10-24T13:52:24.437Z,19.00
2022-10-24T13:56:27.339Z,19.10
2022-10-24T14:00:39.007Z,19.20
2022-10-24T14:04:46.857Z,18.80
2022-10-24T14:09:02.717Z,18.70
2022-10-24T14:13:16.372Z,18.50
2022-10-24T14:17:23.589Z,18.60
2022-10-24T14:21:25.599Z,18.50
2022-10-24T14:25:36.018Z,18.60
2022-10-24T14:29:37.683Z,18.30
2022-10-24T14:33:47.887Z,18.20
2022-10-24T14:37:50.704Z,18.10
2022-10-24T14:41:53.313Z,18.00
2022-10-24T14:46:12.193Z,18.00
2022-10-24T14:50:37.510Z,17.90
2022-10-24T14:54:43.387Z,17.80
2022-10-24T14:58:51.158Z,17.90
2022-10-24T15:02:56.684Z,17.90
2022-10-24T15:06:58.403Z,17.90
2022-10-24T15:11:16.975Z,17.90
2022-10-24T15:15:23.529Z,17.80
2022-10-24T15:19:25.380Z,17.70
2022-10-24T15:23:33.133Z,17.60
2022-10-24T15:27:43.857Z,17.60
2022-10-24T15:31:48.286Z,17.50
2022-10-24T15:35:49.962Z,17.40
2022-10-24T15:39:52.958Z,17.30
2022-10-24T15:43:56.256Z,16.80
2022-10-24T15:47:57.905Z,16.40
2022-10-24T15:51:59.714Z,16.00
2022-10-24T15:56:01.378Z,15.70
2022-10-24T16:00:03.914Z,15.40
2022-10-24T16:04:07.725Z,15.30
2022-10-24T16:08:14.342Z,15.20
2022-10-24T16:12:16.010Z,15.10
2022-10-24T16:16:17.673Z,15.00
2022-10-24T16:20:19.796Z,14.90
2022-10-24T16:24:21.420Z,14.70
2022-10-24T16:28:25.778Z,14.80
2022-10-24T16:32:27.519Z,14.60
2022-10-24T16:36:29.584Z,14.50
2022-10-24T16:40:31.950Z,14.40
2022-10-24T16:44:36.861Z,14.40
2022-10-24T16:48:38.516Z,14.40
2022-10-24T16:52:40.143Z,14.30
2022-10-24T16:56:41.788Z,14.20
2022-10-24T17:00:43.750Z,14.10
2022-10-24T17:04:46.067Z,14.10
2022-10-24T17:08:47.728Z,14.10
2022-10-24T17:12:49.411Z,14.00
2022-10-24T17:16:51.074Z,14.00
2022-10-24T17:21:00.041Z,14.00
2022-10-24T17:25:01.815Z,14.10
2022-10-24T17:29:04.691Z,14.10
2022-10-24T17:33:07.220Z,13.70
2022-10-24T17:37:34.956Z,13.40
2022-10-24T17:41:40.552Z,13.20
2022-10-24T17:45:42.507Z,13.10
2022-10-24T17:49:44.529Z,13.00
2022-10-24T17:53:46.318Z,13.00
2022-10-24T17:57:48.544Z,12.90
2022-10-24T18:01:50.533Z,13.00
2022-10-24T18:05:52.254Z,13.00
2022-10-24T18:10:00.171Z,13.00
2022-10-24T18:14:01.884Z,12.80
2022-10-24T18:18:04.072Z,12.80
2022-10-24T18:22:05.848Z,12.80
2022-10-24T18:26:09.602Z,12.80
2022-10-24T18:30:11.916Z,12.70
2022-10-24T18:34:13.607Z,12.70
2022-10-24T18:38:18.587Z,12.60
2022-10-24T18:42:23.175Z,12.70
2022-10-24T18:46:25.490Z,12.80
2022-10-24T18:50:27.516Z,12.80
2022-10-24T18:54:29.864Z,12.70
2022-10-24T18:58:31.682Z,12.60
2022-10-24T19:02:38.592Z,12.50
2022-10-24T19:06:41.093Z,12.40
2022-10-24T19:10:44.044Z,12.30
2022-10-24T19:14:45.894Z,12.30
2022-10-24T19:18:55.627Z,12.30
2022-10-24T19:22:58.533Z,12.30
2022-10-24T19:27:00.240Z,12.30
2022-10-24T19:31:02.231Z,12.30
2022-10-24T19:35:04.180Z,12.30
2022-10-24T19:39:06.433Z,12.30
2022-10-24T19:43:08.090Z,12.30
2022-10-24T19:47:09.892Z,12.30
2022-10-24T19:51:13.079Z,12.30
2022-10-24T19:55:14.815Z,12.30
2022-10-24T19:59:16.686Z,12.30
2022-10-24T20:03:18.337Z,12.30
2022-10-24T20:07:20.238Z,12.40
2022-10-24T20:11:22.624Z,12.50
2022-10-24T20:15:24.360Z,12.70
2022-10-24T20:19:26.212Z,12.90
2022-10-24T20:23:27.889Z,13.00
2022-10-24T20:27:29.632Z,13.30
2022-10-24T20:31:40.345Z,13.40
2022-10-24T20:35:43.627Z,13.40
2022-10-24T20:39:45.263Z,13.50
2022-10-24T20:43:47.104Z,13.30
2022-10-24T20:47:48.832Z,13.30
2022-10-24T20:51:50.840Z,13.10
2022-10-24T20:55:52.544Z,13.00
2022-10-24T20:59:54.244Z,12.90
2022-10-24T21:03:57.178Z,12.80
2022-10-24T21:07:58.844Z,12.80
2022-10-24T21:12:00.815Z,12.70
2022-10-24T21:16:02.552Z,12.80
2022-10-24T21:20:04.912Z,12.60
2022-10-24T21:24:07.203Z,12.50
2022-10-24T21:28:08.893Z,12.60
2022-10-24T21:32:10.619Z,12.60
2022-10-24T21:36:17.712Z,12.60
2022-10-24T21:40:19.348Z,12.70
2022-10-24T21:44:23.175Z,12.70
2022-10-24T21:48:24.930Z,12.70
2022-10-24T21:52:26.628Z,12.70
2022-10-24T21:56:31.275Z,12.70
2022-10-24T22:00:35.632Z,12.70
2022-10-24T22:04:39.818Z,12.70
2022-10-24T22:08:42.343Z,12.60
2022-10-24T22:12:43.984Z,12.60
2022-10-24T22:16:46.135Z,12.60
2022-10-24T22:20:48.109Z,12.60
2022-10-24T22:24:49.771Z,12.60
2022-10-24T22:28:52.082Z,12.70
2022-10-24T22:32:53.977Z,12.50
2022-10-24T22:37:26.184Z,12.50
2022-10-24T22:41:28.344Z,12.50
2022-10-24T22:45:30.337Z,12.50
2022-10-24T22:49:54.200Z,12.50
2022-10-24T22:53:56.236Z,12.50
2022-10-24T22:57:58.204Z,12.60
2022-10-24T23:02:05.380Z,12.70
2022-10-24T23:06:10.688Z,12.60
2022-10-24T23:10:18.279Z,12.50
2022-10-24T23:14:20.236Z,12.70
2022-10-24T23:18:22.237Z,12.70
2022-10-24T23:22:29.572Z,12.70
2022-10-24T23:27:17.853Z,12.80
2022-10-24T23:31:19.873Z,12.70
2022-10-24T23:35:22.900Z,12.70
2022-10-24T23:39:27.981Z,12.60
2022-10-24T23:43:29.906Z,12.50
2022-10-24T23:47:50.189Z,12.40
2022-10-24T23:52:00.451Z,12.30
2022-10-24T23:56:02.464Z,12.30
